createdAt,value
2023-05-08T00:04:10.897Z,13.40
2023-05-08T00:09:14.946Z,13.46
2023-05-08T00:14:18.476Z,13.90
2023-05-08T00:19:21.576Z,14.09
2023-05-08T00:24:25.351Z,14.44
2023-05-08T00:29:28.946Z,14.65
2023-05-08T00:34:32.660Z,14.64
2023-05-08T00:39:36.624Z,14.76
2023-05-08T00:44:40.508Z,14.59
2023-05-08T00:49:44.303Z,14.83
2023-05-08T00:54:48.915Z,14.64
2023-05-08T00:59:54.635Z,14.39
2023-05-08T01:04:58.872Z,14.21
2023-05-08T01:10:02.705Z,14.70
2023-05-08T01:15:44.103Z,14.94
2023-05-08T01:21:09.779Z,14.88
2023-05-08T01:26:41.853Z,15.09
2023-05-08T01:32:10.762Z,15.24
2023-05-08T01:37:18.180Z,15.28
2023-05-08T01:42:45.144Z,15.41
2023-05-08T01:47:59.332Z,15.69
2023-05-08T01:53:18.520Z,15.45
2023-05-08T01:58:25.106Z,15.42
2023-05-08T02:03:32.166Z,15.32
2023-05-08T02:08:37.687Z,15.19
2023-05-08T02:13:43.075Z,15.14
2023-05-08T02:18:52.199Z,15.13
2023-05-08T02:23:58.702Z,15.29
2023-05-08T02:29:04.344Z,15.41
2023-05-08T02:34:10.489Z,14.96
2023-05-08T02:39:16.546Z,14.65
2023-05-08T02:44:21.018Z,14.32
2023-05-08T02:49:45.545Z,13.97
2023-05-08T02:54:59.431Z,13.87
2023-05-08T03:00:17.273Z,13.90
2023-05-08T03:05:30.852Z,13.98
2023-05-08T03:10:35.836Z,14.03
2023-05-08T03:15:55.864Z,13.89
2023-05-08T03:21:02.126Z,13.94
2023-05-08T03:26:06.620Z,14.07
2023-05-08T03:31:12.879Z,14.39
2023-05-08T03:36:18.908Z,14.33
2023-05-08T03:41:23.236Z,14.32
2023-05-08T03:46:27.386Z,14.32
2023-05-08T03:51:33.261Z,14.34
2023-05-08T03:56:37.717Z,14.24
2023-05-08T04:01:52.977Z,14.19
2023-05-08T04:07:08.766Z,14.06
2023-05-08T04:12:57.953Z,14.06
2023-05-08T04:18:15.522Z,13.84
2023-05-08T04:23:22.743Z,13.79
2023-05-08T04:28:27.974Z,13.72
2023-05-08T04:33:31.995Z,13.84
2023-05-08T04:38:40.078Z,14.00
2023-05-08T04:43:44.705Z,14.01
2023-05-08T04:48:49.140Z,14.09
2023-05-08T04:53:54.246Z,14.08
2023-05-08T04:58:57.435Z,13.96
2023-05-08T05:04:01.483Z,13.89
2023-05-08T05:09:05.544Z,14.09
2023-05-08T05:14:09.412Z,14.16
2023-05-08T05:19:13.023Z,14.09
2023-05-08T05:24:18.549Z,14.27
2023-05-08T05:29:21.955Z,14.37
2023-05-08T05:34:26.619Z,14.41
2023-05-08T05:39:29.952Z,14.57
2023-05-08T05:44:34.820Z,14.58
2023-05-08T05:49:39.951Z,14.44
2023-05-08T05:54:43.615Z,14.42
2023-05-08T05:59:46.909Z,14.57
2023-05-08T06:04:52.697Z,14.73
2023-05-08T06:09:56.893Z,14.86
2023-05-08T06:15:01.248Z,15.08
2023-05-08T06:20:05.035Z,15.15
2023-05-08T06:25:10.128Z,15.29
2023-05-08T06:30:13.956Z,15.47
2023-05-08T06:35:20.998Z,15.42
2023-05-08T06:40:24.334Z,15.35
2023-05-08T06:45:27.890Z,15.49
2023-05-08T06:50:31.532Z,15.62
2023-05-08T06:55:35.664Z,15.78
2023-05-08T07:00:38.919Z,16.08
2023-05-08T07:05:42.249Z,16.26
2023-05-08T07:10:46.118Z,16.72
2023-05-08T07:15:50.187Z,16.95
2023-05-08T07:20:53.853Z,16.89
2023-05-08T07:25:58.305Z,16.93
2023-05-08T07:31:07.344Z,16.91
2023-05-08T07:36:11.330Z,16.86
2023-05-08T07:41:14.931Z,16.83
2023-05-08T07:46:19.287Z,16.86
2023-05-08T07:51:23.406Z,16.64
2023-05-08T07:56:28.811Z,16.79
2023-05-08T08:01:35.391Z,16.98
2023-05-08T08:06:39.121Z,16.86
2023-05-08T08:11:42.959Z,16.80
2023-05-08T08:16:46.861Z,16.81
2023-05-08T08:21:50.206Z,16.38
2023-05-08T08:26:54.411Z,16.70
2023-05-08T08:31:58.633Z,16.39
2023-05-08T08:37:02.731Z,16.30
2023-05-08T08:42:07.004Z,16.28
2023-05-08T08:47:15.047Z,16.28
2023-05-08T08:52:28.592Z,16.44
2023-05-08T08:57:35.710Z,16.33
2023-05-08T09:02:40.400Z,16.32
2023-05-08T09:07:45.188Z,16.28
2023-05-08T09:12:48.906Z,15.96
2023-05-08T09:17:52.162Z,15.93
2023-05-08T09:22:56.166Z,15.58
2023-05-08T09:28:16.712Z,15.28
2023-05-08T09:33:21.331Z,15.20
2023-05-08T09:38:38.984Z,15.38
2023-05-08T09:44:00.486Z,15.27
2023-05-08T09:49:04.789Z,14.90
2023-05-08T09:54:18.481Z,14.60
2023-05-08T09:59:33.919Z,13.88
2023-05-08T10:04:39.092Z,12.68
2023-05-08T10:09:59.382Z,12.20
2023-05-08T10:15:02.917Z,12.04
2023-05-08T10:20:08.754Z,12.04
2023-05-08T10:25:18.088Z,11.97
2023-05-08T10:30:26.228Z,12.37
2023-05-08T10:35:32.250Z,12.29
2023-05-08T10:40:36.989Z,12.64
2023-05-08T10:45:41.292Z,12.77
2023-05-08T10:51:28.996Z,12.85
2023-05-08T10:56:32.481Z,12.97
2023-05-08T11:01:39.494Z,13.07
2023-05-08T11:06:49.548Z,13.24
2023-05-08T11:12:08.067Z,13.33
2023-05-08T11:17:11.714Z,13.32
2023-05-08T11:22:17.821Z,13.10
2023-05-08T11:27:41.189Z,13.11
2023-05-08T11:33:07.837Z,13.08
2023-05-08T11:38:16.694Z,13.04
2023-05-08T11:43:27.684Z,12.96
2023-05-08T11:48:33.234Z,13.18
2023-05-08T11:53:38.104Z,13.42
2023-05-08T11:58:41.793Z,13.51
2023-05-08T12:03:45.881Z,13.59
2023-05-08T12:08:49.767Z,13.83
2023-05-08T12:13:55.224Z,14.11
2023-05-08T12:18:59.189Z,14.55
2023-05-08T12:24:07.512Z,15.22
2023-05-08T12:29:10.637Z,15.58
2023-05-08T12:34:14.541Z,15.69
2023-05-08T12:39:19.557Z,16.04
2023-05-08T12:44:25.753Z,16.02
2023-05-08T12:49:33.205Z,15.80
2023-05-08T12:54:41.482Z,15.93
2023-05-08T12:59:46.686Z,15.90
2023-05-08T13:04:58.289Z,15.50
2023-05-08T13:10:06.175Z,15.34
2023-05-08T13:15:10.402Z,15.22
2023-05-08T13:20:14.633Z,14.93
2023-05-08T13:25:18.436Z,14.89
2023-05-08T13:30:22.658Z,15.42
2023-05-08T13:35:26.365Z,15.50
2023-05-08T13:40:30.590Z,15.77
2023-05-08T13:45:34.263Z,15.80
2023-05-08T13:50:37.651Z,15.94
2023-05-08T13:55:42.550Z,15.90
2023-05-08T14:00:46.973Z,16.03
2023-05-08T14:05:50.601Z,15.98
2023-05-08T14:10:54.324Z,15.76
2023-05-08T14:15:58.169Z,15.58
2023-05-08T14:21:02.262Z,15.18
2023-05-08T14:26:05.939Z,14.77
2023-05-08T14:31:09.647Z,14.72
2023-05-08T14:36:12.891Z,14.79
2023-05-08T14:41:16.191Z,14.83
2023-05-08T14:46:20.249Z,15.10
2023-05-08T14:51:24.289Z,15.36
2023-05-08T14:56:30.198Z,15.16
2023-05-08T15:01:36.793Z,15.20
2023-05-08T15:06:41.915Z,15.29
2023-05-08T15:11:45.791Z,15.27
2023-05-08T15:16:50.060Z,15.29
2023-05-08T15:21:54.369Z,15.36
2023-05-08T15:26:58.490Z,15.29
2023-05-08T15:32:02.084Z,14.90
2023-05-08T15:37:06.531Z,14.33
2023-05-08T15:42:11.067Z,14.26
2023-05-08T15:47:15.274Z,14.18
2023-05-08T15:52:20.197Z,14.07
2023-05-08T15:57:27.267Z,13.99
2023-05-08T16:02:31.588Z,14.19
2023-05-08T16:07:35.414Z,13.93
2023-05-08T16:12:39.353Z,13.65
2023-05-08T16:17:43.226Z,13.35
2023-05-08T16:22:47.431Z,13.28
2023-05-08T16:27:51.987Z,13.24
2023-05-08T16:32:56.131Z,13.37
2023-05-08T16:38:00.003Z,13.56
2023-05-08T16:43:04.192Z,13.23
2023-05-08T16:48:07.429Z,13.04
2023-05-08T16:53:11.164Z,12.91
2023-05-08T16:58:16.309Z,12.53
2023-05-08T17:03:20.372Z,12.34
2023-05-08T17:08:24.670Z,12.41
2023-05-08T17:13:28.122Z,12.15
2023-05-08T17:18:33.884Z,12.15
2023-05-08T17:23:38.027Z,12.13
2023-05-08T17:28:41.482Z,12.17
2023-05-08T17:33:44.836Z,12.04
2023-05-08T17:38:50.737Z,11.95
2023-05-08T17:43:54.406Z,11.95
2023-05-08T17:48:57.697Z,11.92
2023-05-08T17:54:02.140Z,11.90
2023-05-08T17:59:06.381Z,11.84
2023-05-08T18:04:10.119Z,12.01
2023-05-08T18:09:14.210Z,11.79
2023-05-08T18:14:18.013Z,11.69
2023-05-08T18:19:21.867Z,11.71
2023-05-08T18:24:25.745Z,11.69
2023-05-08T18:29:29.368Z,11.67
2023-05-08T18:34:33.268Z,11.65
2023-05-08T18:39:37.071Z,11.40
2023-05-08T18:44:40.714Z,11.28
2023-05-08T18:49:44.514Z,11.24
2023-05-08T18:54:48.770Z,11.22
2023-05-08T18:59:52.961Z,11.22
2023-05-08T19:04:57.003Z,11.10
2023-05-08T19:10:00.825Z,11.04
2023-05-08T19:15:04.144Z,10.89
2023-05-08T19:20:08.541Z,10.97
2023-05-08T19:25:12.982Z,11.00
2023-05-08T19:30:16.785Z,10.90
2023-05-08T19:35:21.421Z,10.81
2023-05-08T19:40:24.540Z,10.80
2023-05-08T19:45:27.637Z,10.92
2023-05-08T19:50:31.786Z,10.94
2023-05-08T19:55:36.055Z,10.81
2023-05-08T20:00:39.628Z,11.02
2023-05-08T20:05:42.924Z,11.02
2023-05-08T20:10:50.052Z,10.97
2023-05-08T20:15:54.432Z,11.07
2023-05-08T20:20:58.445Z,10.91
2023-05-08T20:26:02.542Z,10.85
2023-05-08T20:31:06.606Z,10.73
2023-05-08T20:36:10.447Z,10.69
2023-05-08T20:41:13.556Z,10.66
2023-05-08T20:46:16.708Z,10.69
2023-05-08T20:51:20.133Z,10.69
2023-05-08T20:56:23.875Z,10.59
2023-05-08T21:01:27.733Z,10.75
2023-05-08T21:06:31.511Z,10.83
2023-05-08T21:11:36.035Z,10.97
2023-05-08T21:16:39.723Z,11.01
2023-05-08T21:21:45.307Z,11.06
2023-05-08T21:26:48.999Z,11.22
2023-05-08T21:31:52.944Z,11.32
2023-05-08T21:36:56.314Z,11.21
2023-05-08T21:42:00.414Z,10.92
2023-05-08T21:47:04.460Z,11.15
2023-05-08T21:52:08.379Z,11.22
2023-05-08T21:57:12.033Z,11.18
2023-05-08T22:02:16.862Z,11.27
2023-05-08T22:07:21.665Z,11.28
2023-05-08T22:12:25.449Z,11.32
2023-05-08T22:17:29.948Z,11.44
2023-05-08T22:22:33.825Z,11.71
2023-05-08T22:27:37.448Z,11.90
2023-05-08T22:32:40.699Z,11.93
2023-05-08T22:37:44.217Z,12.06
2023-05-08T22:42:47.973Z,12.12
2023-05-08T22:47:51.701Z,12.15
2023-05-08T22:52:55.968Z,12.21
2023-05-08T22:57:59.642Z,12.25
2023-05-08T23:03:03.884Z,12.28
2023-05-08T23:08:07.549Z,12.34
2023-05-08T23:13:11.308Z,12.37
2023-05-08T23:18:15.147Z,12.35
2023-05-08T23:23:18.882Z,12.35
2023-05-08T23:28:22.626Z,12.40
2023-05-08T23:33:25.898Z,12.33
2023-05-08T23:38:29.840Z,12.36
2023-05-08T23:43:33.610Z,12.37
2023-05-08T23:48:37.157Z,12.39
2023-05-08T23:53:41.028Z,12.36
2023-05-08T23:58:45.303Z,12.28
